Time;durP1;ratioP1;P1;durP2;ratioP2;P2;SDS_P1;SDS_P2;PMS_P1;PMS_P2;Temp;Humidity;BMP_temperature;BMP_pressure;BME280_temperature;BME280_humidity;BME280_pressure;Samples;Min_cycle;Max_cycle;Signal;HPM_P1;HPM_P2
2023/05/19 00:00:13;;;;;;;5.07;2.13;;;11.70;99.90;;;-141.84;50.28;20200.00;5034614;28;20277;-54
2023/05/19 00:02:44;;;;;;;3.50;2.00;;;11.70;99.90;;;-141.84;51.02;20220.34;5033981;28;20190;-54
2023/05/19 00:05:17;;;;;;;3.83;1.87;;;11.70;99.90;;;-141.84;50.83;20212.19;5034745;28;20214;-55
2023/05/19 00:07:49;;;;;;;3.67;2.10;;;11.60;99.90;;;-141.84;51.00;20193.91;5034595;28;20555;-56
2023/05/19 00:10:19;;;;;;;4.73;1.90;;;11.60;99.90;;;-141.84;50.89;20200.00;5034320;28;20194;-54
2023/05/19 00:12:50;;;;;;;6.20;2.00;;;11.60;99.90;;;-141.84;50.85;20161.38;5034263;28;20303;-55
2023/05/19 00:15:21;;;;;;;3.40;1.90;;;11.60;99.90;;;-141.84;50.76;20191.88;5033911;28;20260;-53
2023/05/19 00:17:51;;;;;;;2.87;1.90;;;11.60;99.90;;;-141.84;51.04;20167.47;5033814;28;20670;-58
2023/05/19 00:20:19;;;;;;;4.30;2.07;;;11.60;99.90;;;-141.84;50.70;20183.75;5034198;28;20202;-55
2023/05/19 00:22:47;;;;;;;4.00;2.03;;;11.60;99.90;;;-141.84;51.31;20179.69;5033737;28;20233;-53
2023/05/19 00:25:15;;;;;;;3.50;1.93;;;11.60;99.90;;;-141.84;51.23;20179.69;5033719;28;20222;-53
2023/05/19 00:27:44;;;;;;;4.13;2.30;;;11.50;99.90;;;-141.84;51.40;20169.53;5033838;28;20294;-54
2023/05/19 00:30:14;;;;;;;3.90;2.00;;;11.50;99.90;;;-141.84;51.35;20155.28;5034035;28;20292;-54
2023/05/19 00:32:43;;;;;;;3.97;2.10;;;11.40;99.90;;;-141.84;51.09;20187.81;5033373;28;20229;-54
2023/05/19 00:35:11;;;;;;;4.43;2.10;;;11.40;99.90;;;-141.84;50.84;20155.28;5033878;28;20625;-53
2023/05/19 00:37:40;;;;;;;6.63;2.57;;;11.40;99.90;;;-141.84;50.31;20185.78;5033510;28;20237;-56
2023/05/19 00:40:10;;;;;;;3.87;2.00;;;11.40;99.90;;;-141.84;50.22;20159.34;5033720;28;20585;-54
2023/05/19 00:42:39;;;;;;;4.93;2.23;;;11.50;99.90;;;-141.84;50.50;20147.16;5033688;28;20202;-54
2023/05/19 00:45:08;;;;;;;2.93;2.10;;;11.50;99.90;;;-141.84;51.12;20130.91;5033082;28;20228;-53
2023/05/19 00:47:37;;;;;;;3.20;2.07;;;11.40;99.90;;;-141.84;50.90;20157.31;5032985;28;20216;-53
2023/05/19 00:50:07;;;;;;;3.80;1.90;;;11.40;99.90;;;-141.84;51.14;20143.09;5033420;28;20202;-53
2023/05/19 00:52:35;;;;;;;2.73;2.23;;;11.40;99.90;;;-141.84;50.83;20153.25;5033547;28;20232;-54
2023/05/19 00:55:07;;;;;;;4.27;2.47;;;11.30;99.90;;;-141.84;51.06;20163.41;5033396;28;20287;-55
2023/05/19 00:57:36;;;;;;;4.60;2.20;;;11.30;99.90;;;-141.84;50.92;20185.78;5033375;28;20198;-53
2023/05/19 01:00:07;;;;;;;4.93;2.40;;;11.30;99.90;;;-141.84;51.29;20141.06;5033075;28;20206;-49
2023/05/19 01:02:38;;;;;;;4.90;2.30;;;11.30;99.90;;;-141.84;51.40;20139.03;5032967;28;20186;-53
2023/05/19 01:05:09;;;;;;;4.27;2.20;;;11.30;99.90;;;-141.84;51.33;20143.09;5033333;28;20633;-54
2023/05/19 01:07:38;;;;;;;3.90;2.30;;;11.30;99.90;;;-141.84;51.61;20161.38;5032906;28;20273;-53
2023/05/19 01:10:07;;;;;;;4.30;2.50;;;11.20;99.90;;;-141.84;51.69;20108.53;5032679;28;20202;-54
2023/05/19 01:12:36;;;;;;;4.90;2.50;;;11.10;99.90;;;-141.84;51.67;20096.34;5032961;28;20608;-55
2023/05/19 01:15:06;;;;;;;5.37;2.20;;;11.10;99.90;;;-141.84;51.39;20128.88;5032678;28;20747;-55
2023/05/19 01:17:49;;;;;;;5.57;2.70;;;11.20;99.90;;;-141.84;51.64;20122.78;5032408;28;20718;-54
2023/05/19 01:20:24;;;;;;;5.73;2.77;;;11.10;99.90;;;-141.84;52.22;20102.44;5032995;28;20186;-55
2023/05/19 01:23:22;;;;;;;4.83;2.30;;;11.10;99.90;;;-141.84;51.49;20130.91;5032764;28;20204;-53
2023/05/19 01:26:56;;;;;;;4.13;2.20;;;11.10;99.90;;;-141.84;52.38;20088.22;5032970;28;20230;-54
2023/05/19 01:29:46;;;;;;;4.47;2.60;;;11.00;99.90;;;-141.84;52.21;20094.31;4982519;28;20765;-54
2023/05/19 01:32:21;;;;;;;5.47;2.63;;;10.90;99.90;;;-141.84;52.21;20108.53;5012683;28;20321;-54
2023/05/19 01:34:50;;;;;;;4.13;2.50;;;10.90;99.90;;;-141.84;52.67;20094.31;5011979;28;20218;-52
2023/05/19 01:37:21;;;;;;;3.20;2.60;;;10.80;99.90;;;-141.84;52.79;20063.81;5011925;28;20207;-55
2023/05/19 01:39:50;;;;;;;4.10;2.50;;;10.80;99.90;;;-141.84;53.04;20078.06;5011722;28;20218;-52
2023/05/19 01:42:19;;;;;;;4.03;2.40;;;10.80;99.90;;;-141.84;53.15;20074.00;5011819;28;20290;-53
2023/05/19 01:44:48;;;;;;;3.27;2.57;;;10.80;99.90;;;-141.84;53.15;20086.19;5029238;28;20213;-53
2023/05/19 01:47:19;;;;;;;3.93;2.30;;;10.70;99.90;;;-141.84;53.40;20067.88;5031221;28;20254;-55
2023/05/19 01:49:47;;;;;;;4.37;2.80;;;10.70;99.90;;;-141.84;53.42;20061.78;5031116;28;20183;-56
2023/05/19 01:52:15;;;;;;;6.03;2.57;;;10.70;99.90;;;-141.84;53.85;20057.72;5031284;28;20237;-55
2023/05/19 01:54:43;;;;;;;4.47;2.53;;;10.60;99.90;;;-141.84;53.66;20063.81;5030775;28;20674;-54
2023/05/19 01:57:28;;;;;;;3.87;2.20;;;10.70;99.90;;;-141.84;53.26;20088.22;5030871;28;20233;-51
2023/05/19 02:00:08;;;;;;;3.97;3.03;;;10.70;99.90;;;-141.84;53.32;20061.78;5030861;28;20605;-53
2023/05/19 02:02:55;;;;;;;5.27;2.40;;;10.70;99.90;;;-141.84;53.59;20080.09;5014258;28;20265;-53
2023/05/19 02:05:34;;;;;;;3.67;2.73;;;10.60;99.90;;;-141.84;53.71;20071.97;5031158;28;20190;-53
2023/05/19 02:08:13;;;;;;;4.47;2.67;;;10.70;99.90;;;-141.84;53.84;20039.44;5030547;28;20202;-54
2023/05/19 02:10:50;;;;;;;4.43;2.53;;;10.60;99.90;;;-141.84;53.77;20055.69;5030737;28;20681;-53
2023/05/19 02:13:23;;;;;;;4.83;2.70;;;10.60;99.90;;;-141.84;54.22;20074.00;5030923;28;20186;-54
2023/05/19 02:15:56;;;;;;;4.53;2.43;;;10.60;99.90;;;-141.84;54.47;20055.69;5030654;28;20281;-53
2023/05/19 02:18:28;;;;;;;5.07;2.47;;;10.50;99.90;;;-141.84;54.40;20069.94;5029883;28;20205;-51
2023/05/19 02:20:56;;;;;;;3.23;2.63;;;10.50;99.90;;;-141.84;53.96;20006.91;5030592;28;20717;-55
2023/05/19 02:23:25;;;;;;;5.23;2.77;;;10.50;99.90;;;-141.84;53.96;20061.78;5030570;28;20945;-54
2023/05/19 02:25:54;;;;;;;4.47;2.97;;;10.50;99.90;;;-141.84;54.09;20049.59;5030744;28;20248;-56
2023/05/19 02:28:22;;;;;;;4.47;2.73;;;10.50;99.90;;;-141.84;54.69;20000.81;5030261;28;20215;-54
2023/05/19 02:30:50;;;;;;;4.70;2.87;;;10.40;99.90;;;-141.84;54.48;20027.25;5030625;28;20252;-53
2023/05/19 02:33:18;;;;;;;4.80;2.70;;;10.40;99.90;;;-141.84;54.50;20039.44;4993870;28;1068428;-53
2023/05/19 02:35:48;;;;;;;4.43;3.23;;;10.40;99.90;;;-141.84;54.37;20065.84;5031551;28;20205;-53
2023/05/19 02:38:16;;;;;;;4.70;2.90;;;10.50;99.90;;;-141.84;54.86;20004.88;5031088;28;20208;-53
2023/05/19 02:40:45;;;;;;;4.97;3.10;;;10.40;99.90;;;-141.84;55.26;20027.25;5031432;28;20237;-53
2023/05/19 02:43:13;;;;;;;4.13;2.60;;;10.40;99.90;;;-141.84;55.05;20043.50;5031205;28;20277;-55
2023/05/19 02:45:41;;;;;;;5.03;3.10;;;10.40;99.90;;;-141.84;55.73;20061.78;5030710;28;20540;-55
2023/05/19 02:48:09;;;;;;;5.50;2.70;;;10.40;99.90;;;-141.84;55.13;20049.59;5031507;28;20486;-55
2023/05/19 02:50:38;;;;;;;4.30;2.93;;;10.40;99.90;;;-141.84;55.58;20037.41;5030657;28;20662;-55
2023/05/19 02:53:07;;;;;;;4.67;3.00;;;10.30;99.90;;;-141.84;55.36;20043.50;5031181;28;20735;-55
2023/05/19 02:55:36;;;;;;;4.90;2.67;;;10.30;99.90;;;-141.84;55.14;20055.69;5031200;28;20304;-55
2023/05/19 02:58:04;;;;;;;3.47;2.63;;;10.40;99.90;;;-141.84;55.44;20021.16;5030830;28;20734;-54
2023/05/19 03:00:32;;;;;;;4.07;2.80;;;10.30;99.90;;;-141.84;55.92;20006.91;5030303;28;20293;-55
2023/05/19 03:03:03;;;;;;;3.20;2.50;;;10.30;99.90;;;-141.84;55.96;19994.72;5030394;28;20578;-56
2023/05/19 03:05:31;;;;;;;4.60;2.70;;;10.30;99.90;;;-141.84;56.37;19988.63;5030944;28;20185;-56
2023/05/19 03:07:59;;;;;;;4.23;2.70;;;10.30;99.90;;;-141.84;56.51;19988.63;5030982;28;20249;-56
2023/05/19 03:10:30;;;;;;;5.90;3.23;;;10.30;99.90;;;-141.84;55.92;20041.47;5030747;28;20217;-55
2023/05/19 03:12:58;;;;;;;6.17;2.90;;;10.30;99.90;;;-141.84;56.01;20017.09;5030985;28;20183;-56
2023/05/19 03:15:26;;;;;;;5.40;3.10;;;10.30;99.90;;;-141.84;56.69;19992.69;5030659;28;20208;-54
2023/05/19 03:17:55;;;;;;;6.53;3.17;;;10.30;99.90;;;-141.84;56.75;19996.75;5030821;28;20232;-57
2023/05/19 03:20:24;;;;;;;4.97;2.70;;;10.20;99.90;;;-141.84;56.40;20037.41;5030831;28;20206;-56
2023/05/19 03:22:52;;;;;;;5.17;2.97;;;10.20;99.90;;;-141.84;56.44;20049.59;5030473;28;20205;-54
2023/05/19 03:25:20;;;;;;;6.20;3.10;;;10.20;99.90;;;-141.84;57.00;19998.78;5030598;28;20233;-55
2023/05/19 03:27:50;;;;;;;5.17;3.10;;;10.10;99.90;;;-141.84;56.89;20004.88;5030509;28;20300;-55
2023/05/19 03:30:18;;;;;;;4.67;2.93;;;10.10;99.90;;;-141.84;56.80;20008.94;5030291;28;20280;-56
2023/05/19 03:32:46;;;;;;;5.07;3.30;;;10.20;99.90;;;-141.84;56.89;19960.16;5030286;28;20252;-55
2023/05/19 03:35:14;;;;;;;6.37;3.00;;;10.10;99.90;;;-141.84;57.10;20025.22;5030486;28;20251;-56
2023/05/19 03:37:43;;;;;;;5.67;3.00;;;10.10;99.90;;;-141.84;57.34;19972.38;5030542;28;20194;-54
2023/05/19 03:40:12;;;;;;;4.63;3.00;;;10.00;99.90;;;-141.84;57.19;19982.53;5030203;28;20293;-53
2023/05/19 03:42:40;;;;;;;4.33;2.90;;;10.00;99.90;;;-141.84;57.42;19964.25;5030416;28;20198;-55
2023/05/19 03:45:11;;;;;;;3.47;3.00;;;10.00;99.90;;;-141.84;57.78;19974.41;5030289;28;20209;-53
2023/05/19 03:47:40;;;;;;;5.53;3.17;;;9.90;99.90;;;-141.84;57.28;19996.75;5030015;28;20217;-54
2023/05/19 03:50:09;;;;;;;4.80;3.20;;;10.00;99.90;;;-141.84;57.37;19988.63;5029890;28;20213;-57
2023/05/19 03:52:38;;;;;;;5.40;3.47;;;10.00;99.90;;;-141.84;57.67;19964.25;5030379;28;20252;-56
2023/05/19 03:55:08;;;;;;;4.07;2.90;;;10.00;99.90;;;-141.84;57.87;19962.19;5030025;28;20642;-56
2023/05/19 03:57:36;;;;;;;3.83;2.80;;;10.00;99.90;;;-141.84;57.89;19996.75;5030094;28;20650;-53
2023/05/19 04:00:06;;;;;;;4.60;4.07;;;10.00;99.90;;;-141.84;57.97;19960.16;5029641;28;20750;-54
2023/05/19 04:02:35;;;;;;;4.30;3.40;;;9.90;99.90;;;-141.84;58.28;19943.91;5030046;28;20248;-56
2023/05/19 04:05:05;;;;;;;3.77;3.07;;;9.90;99.90;;;-141.84;58.12;19986.59;5030162;28;20202;-56
2023/05/19 04:07:34;;;;;;;5.23;3.27;;;9.90;99.90;;;-141.84;58.44;19970.34;5030321;28;20229;-55
2023/05/19 04:10:05;;;;;;;7.03;3.40;;;9.90;99.90;;;-141.84;57.88;20000.81;5029976;28;20194;-52
2023/05/19 04:12:33;;;;;;;4.43;2.87;;;10.00;99.90;;;-141.84;58.20;19982.53;5030526;28;20186;-55
2023/05/19 04:15:01;;;;;;;8.03;3.13;;;10.10;99.90;;;-141.84;58.61;19976.44;5029981;28;20260;-55
2023/05/19 04:17:30;;;;;;;4.43;3.07;;;10.00;99.90;;;-141.84;58.39;19958.13;5029897;28;20666;-54
2023/05/19 04:19:59;;;;;;;5.07;3.00;;;10.00;99.90;;;-141.84;58.33;19964.25;5030063;28;20205;-55
2023/05/19 04:22:28;;;;;;;4.37;3.10;;;10.10;99.90;;;-141.84;58.25;20027.25;5029852;28;20241;-56
2023/05/19 04:24:57;;;;;;;4.33;2.93;;;10.20;99.90;;;-141.84;58.37;19998.78;5029933;28;20210;-54
2023/05/19 04:27:26;;;;;;;5.23;3.10;;;10.20;99.90;;;-141.84;58.06;19996.75;5030016;28;20317;-55
2023/05/19 04:29:54;;;;;;;3.87;2.83;;;10.20;99.90;;;-141.84;58.15;19968.31;5030067;28;20222;-52
2023/05/19 04:32:23;;;;;;;4.13;2.90;;;10.30;99.90;;;-141.84;57.45;20037.41;5029681;28;20244;-56
2023/05/19 04:34:51;;;;;;;4.37;3.10;;;10.30;99.90;;;-141.84;57.37;20039.44;5030116;28;20206;-55
2023/05/19 04:37:21;;;;;;;4.87;2.73;;;10.40;99.90;;;-141.84;57.45;20057.72;5029836;28;20754;-54
2023/05/19 04:39:49;;;;;;;4.60;2.90;;;10.40;99.90;;;-141.84;57.14;20061.78;5029948;28;20296;-55
2023/05/19 04:42:18;;;;;;;4.53;3.07;;;10.60;99.90;;;-141.84;57.10;20071.97;5030753;28;20216;-52
2023/05/19 04:44:50;;;;;;;7.30;3.13;;;10.60;99.90;;;-141.84;57.16;20047.56;5033769;28;20286;-55
2023/05/19 04:47:20;;;;;;;5.00;3.33;;;10.70;99.90;;;-141.84;57.60;20037.41;5033472;28;20249;-53
2023/05/19 04:49:48;;;;;;;4.03;2.90;;;10.50;99.90;;;-141.84;57.80;20055.69;5034082;28;20386;-53
2023/05/19 04:52:20;;;;;;;5.50;3.37;;;10.60;99.90;;;-141.84;57.10;20090.25;5033718;28;20233;-55
2023/05/19 04:54:50;;;;;;;4.90;3.10;;;10.70;99.90;;;-141.84;57.17;20086.19;5033508;28;20206;-53
2023/05/19 04:57:18;;;;;;;4.33;3.13;;;10.70;99.90;;;-141.84;57.04;20055.69;5033124;28;20748;-53
2023/05/19 04:59:46;;;;;;;4.07;2.70;;;10.80;99.90;;;-141.84;56.89;20130.91;5033517;28;20202;-53
2023/05/19 05:02:15;;;;;;;5.63;2.97;;;10.90;99.90;;;-141.84;56.55;20098.38;5032731;28;20297;-57
2023/05/19 05:04:45;;;;;;;5.00;2.93;;;10.90;99.90;;;-141.84;56.97;20094.31;5033227;28;20199;-54
2023/05/19 05:07:13;;;;;;;4.33;2.80;;;10.90;99.90;;;-141.84;56.17;20130.91;5033235;28;20257;-54
2023/05/19 05:09:41;;;;;;;8.23;3.10;;;11.00;99.90;;;-141.84;56.23;20134.97;5033033;28;20240;-53
2023/05/19 05:12:14;;;;;;;3.97;3.20;;;11.10;99.90;;;-141.84;56.04;20159.34;5033211;28;20206;-56
2023/05/19 05:14:43;;;;;;;6.33;3.23;;;11.20;99.90;;;-141.84;55.50;20157.31;5033136;28;20273;-53
2023/05/19 05:17:12;;;;;;;4.33;3.23;;;11.30;99.90;;;-141.84;56.33;20155.28;5033181;28;20904;-54
2023/05/19 05:19:41;;;;;;;3.57;2.90;;;11.40;99.90;;;-141.84;55.40;20189.84;5033211;28;20202;-56
2023/05/19 05:22:10;;;;;;;5.60;2.97;;;11.50;99.90;;;-141.84;55.37;20193.91;5032944;28;20206;-54
2023/05/19 05:24:39;;;;;;;5.33;3.20;;;11.50;99.90;;;-141.84;54.61;20191.88;5033247;28;20650;-55
2023/05/19 05:27:08;;;;;;;5.37;2.90;;;11.70;99.90;;;-141.84;54.54;20232.53;5031664;28;20300;-53
2023/05/19 05:29:38;;;;;;;4.63;2.90;;;11.70;99.90;;;-141.84;54.42;20220.34;5033016;28;20209;-54
2023/05/19 05:32:07;;;;;;;3.07;2.73;;;11.70;99.90;;;-141.84;nan;20254.88;5032537;28;20638;-55
2023/05/19 05:34:36;;;;;;;5.70;3.00;;;11.90;99.90;;;-141.84;54.64;20226.44;5032904;28;20210;-51
2023/05/19 05:37:05;;;;;;;5.17;3.10;;;11.90;99.90;;;-141.84;54.36;20271.16;5032781;28;20206;-55
2023/05/19 05:39:33;;;;;;;4.43;2.90;;;11.90;99.90;;;-141.84;53.42;20269.13;5032548;28;20770;-55
2023/05/19 05:42:01;;;;;;;4.20;3.10;;;12.10;99.90;;;-141.84;53.84;20287.41;5032781;28;20293;-55
2023/05/19 05:44:30;;;;;;;3.77;2.80;;;12.20;99.90;;;-141.84;53.91;20291.47;5032809;28;20386;-51
2023/05/19 05:47:00;;;;;;;4.17;2.70;;;12.20;99.90;;;-141.84;52.77;20370.75;5032436;28;20206;-54
2023/05/19 05:49:29;;;;;;;5.43;3.17;;;12.40;99.90;;;-141.84;52.87;20370.75;5032657;28;20257;-52
2023/05/19 05:51:58;;;;;;;4.27;3.20;;;12.50;99.90;;;-141.84;52.98;20364.66;5020158;28;20707;-53
2023/05/19 05:54:34;;;;;;;4.97;3.07;;;12.60;99.90;;;-141.84;52.52;20407.34;5031326;28;20192;-55
2023/05/19 05:57:03;;;;;;;5.47;3.07;;;12.90;99.90;;;-141.84;51.30;20447.97;5036923;28;20642;-51
2023/05/19 05:59:32;;;;;;;5.40;2.77;;;13.10;99.90;;;-141.84;51.48;20452.06;5043196;28;20190;-55
2023/05/19 06:02:02;;;;;;;4.13;3.30;;;13.30;99.90;;;-141.84;50.86;20496.78;5032156;28;20229;-52
2023/05/19 06:04:31;;;;;;;6.10;3.37;;;13.50;99.90;;;-141.84;49.62;20545.56;5032206;28;20210;-54
2023/05/19 06:07:00;;;;;;;5.37;3.23;;;13.70;99.90;;;-141.84;50.29;20549.63;5032154;28;20202;-55
2023/05/19 06:09:29;;;;;;;4.10;2.70;;;13.90;99.90;;;-141.84;49.09;20610.59;5032311;28;20249;-53
2023/05/19 06:11:59;;;;;;;3.47;2.63;;;14.10;99.90;;;-141.84;48.91;20624.84;5031834;28;20206;-55
2023/05/19 06:14:27;;;;;;;5.47;2.83;;;14.30;99.90;;;-141.84;48.29;20671.59;5031889;28;20724;-56
2023/05/19 06:16:55;;;;;;;3.63;2.88;;;14.40;99.90;;;-141.84;48.34;20702.09;5031903;28;20705;-53
2023/05/19 06:19:25;;;;;;;5.20;2.60;;;14.60;99.90;;;-141.84;47.64;20734.59;5031992;28;20281;-53
2023/05/19 06:21:53;;;;;;;5.45;2.88;;;14.90;99.90;;;-141.84;47.69;20710.22;5031991;28;20202;-53
2023/05/19 06:24:21;;;;;;;5.03;3.28;;;14.90;99.90;;;-141.84;47.89;20744.78;5031983;28;20206;-55
2023/05/19 06:26:49;;;;;;;4.03;2.88;;;15.00;99.90;;;-141.84;47.81;20765.09;5033290;28;20207;-55
2023/05/19 06:29:17;;;;;;;4.47;3.35;;;15.20;99.90;;;-141.84;47.01;20789.50;5031485;28;20228;-54
2023/05/19 06:31:45;;;;;;;6.15;3.20;;;15.40;99.90;;;-141.84;47.32;20809.81;5031914;28;20292;-50
2023/05/19 06:34:16;;;;;;;3.78;2.80;;;15.40;99.90;;;-141.84;46.44;20791.53;5032082;28;20625;-51
2023/05/19 06:36:46;;;;;;;4.18;2.80;;;15.40;99.90;;;-141.84;47.09;20777.28;5031912;28;20654;-52
2023/05/19 06:39:14;;;;;;;6.47;3.08;;;15.30;99.90;;;-141.84;47.87;20704.13;5031694;28;20290;-53
2023/05/19 06:41:42;;;;;;;4.07;3.22;;;15.10;99.90;;;-141.84;47.31;20761.03;5031505;28;20206;-55
2023/05/19 06:44:10;;;;;;;3.88;2.88;;;15.10;99.90;;;-141.84;47.43;20791.53;5018321;28;20213;-55
2023/05/19 06:46:38;;;;;;;6.97;3.00;;;15.30;99.90;;;-141.84;47.20;20846.41;5024979;28;20325;-56
2023/05/19 06:49:06;;;;;;;4.60;3.00;;;15.40;99.90;;;-141.84;47.26;20822.03;5030699;28;20637;-57
2023/05/19 06:51:35;;;;;;;4.85;3.20;;;15.50;99.90;;;-141.84;46.73;20817.94;5031441;28;20217;-74
2023/05/19 06:54:04;;;;;;;4.53;2.58;;;15.60;99.90;;;-141.84;46.74;20815.91;5031140;28;20198;-75
2023/05/19 06:56:32;;;;;;;3.15;2.55;;;15.70;99.90;;;-141.84;46.71;20864.72;5032172;28;20205;-75
2023/05/19 06:59:00;;;;;;;5.43;2.80;;;15.70;99.90;;;-141.84;46.33;20862.69;5046204;28;20205;-74
2023/05/19 07:01:29;;;;;;;4.22;2.80;;;15.90;99.90;;;-141.84;46.18;20923.66;5030757;28;20808;-73
2023/05/19 07:03:57;;;;;;;5.85;3.45;;;16.10;99.90;;;-141.84;45.59;20988.72;5016657;28;20218;-75
2023/05/19 07:06:26;;;;;;;5.30;3.30;;;16.10;99.90;;;-141.84;45.33;20931.78;5010949;28;20203;-74
2023/05/19 07:08:54;;;;;;;5.65;3.03;;;16.20;99.90;;;-141.84;45.69;20994.81;5011332;28;20302;-74
2023/05/19 07:11:25;;;;;;;4.65;3.38;;;16.20;99.90;;;-141.84;45.71;21029.38;5031071;28;20206;-74
2023/05/19 07:13:53;;;;;;;3.60;3.22;;;16.50;99.90;;;-141.84;45.07;21080.19;5030800;28;20190;-75
2023/05/19 07:16:21;;;;;;;3.60;3.20;;;16.80;99.90;;;-141.84;45.51;21041.56;5030830;28;20202;-74
2023/05/19 07:18:49;;;;;;;5.40;4.43;;;16.70;99.90;;;-141.84;45.26;20962.28;5031005;28;20647;-74
2023/05/19 07:21:17;;;;;;;3.67;2.80;;;16.70;99.90;;;-141.84;46.21;20927.72;5031074;28;20864;-74
2023/05/19 07:23:45;;;;;;;3.67;2.72;;;16.50;99.90;;;-141.84;46.85;20931.78;5031211;28;20581;-73
2023/05/19 07:26:13;;;;;;;4.43;3.22;;;16.40;99.90;;;-141.84;46.50;20895.19;5031376;28;20225;-74
2023/05/19 07:28:43;;;;;;;3.53;2.90;;;16.50;99.90;;;-141.84;46.93;20895.19;5048716;28;20723;-74
2023/05/19 07:31:11;;;;;;;3.30;2.78;;;16.40;99.90;;;-141.84;46.50;20895.19;5050591;28;20349;-73
2023/05/19 07:33:39;;;;;;;6.32;3.47;;;16.30;99.90;;;-141.84;46.29;20891.13;5050320;28;20231;-75
2023/05/19 07:36:07;;;;;;;2.88;2.67;;;16.30;99.90;;;-141.84;46.38;20878.94;5050859;28;20202;-72
2023/05/19 07:38:36;;;;;;;4.28;2.70;;;16.40;99.90;;;-141.84;45.26;20876.91;5050264;28;20685;-75
2023/05/19 07:41:04;;;;;;;3.17;2.88;;;16.30;99.90;;;-141.84;45.74;20842.34;5050619;28;20209;-73
2023/05/19 07:43:32;;;;;;;4.40;2.40;;;16.10;99.90;;;-141.84;46.05;20799.66;5024200;28;20229;-74
2023/05/19 07:46:02;;;;;;;3.22;2.92;;;15.90;99.90;;;-141.84;46.36;20809.81;5030402;28;20233;-74
2023/05/19 07:48:30;;;;;;;3.13;2.53;;;15.80;99.90;;;-141.84;46.45;20775.25;5030714;28;20202;-74
2023/05/19 07:50:58;;;;;;;3.42;2.65;;;15.70;99.90;;;-141.84;46.50;20838.28;5030738;28;20244;-74
2023/05/19 07:53:26;;;;;;;2.60;2.17;;;15.80;99.90;;;-141.84;46.43;20785.44;5031133;28;20615;-72
2023/05/19 07:55:55;;;;;;;3.38;2.30;;;15.70;99.90;;;-141.84;46.14;20858.59;5030532;28;20240;-74
2023/05/19 07:58:26;;;;;;;2.80;2.42;;;15.90;99.90;;;-141.84;45.57;20854.53;5046496;28;20661;-74
2023/05/19 08:00:56;;;;;;;3.38;2.38;;;16.10;99.90;;;-141.84;45.97;20905.38;5010541;28;20575;-73
2023/05/19 08:03:26;;;;;;;4.15;2.45;;;16.10;99.90;;;-141.84;44.52;20962.28;5020817;28;20207;-74
2023/05/19 08:05:55;;;;;;;3.33;2.50;;;16.30;99.90;;;-141.84;43.96;20988.72;5030618;28;20281;-74
2023/05/19 08:08:23;;;;;;;5.55;2.80;;;16.60;99.90;;;-141.84;44.14;21025.31;5030116;28;20677;-75
2023/05/19 08:10:51;;;;;;;4.22;2.47;;;16.70;99.90;;;-141.84;43.50;21029.38;5029986;28;20670;-74
2023/05/19 08:13:19;;;;;;;3.38;2.70;;;16.80;99.90;;;-141.84;43.33;21009.03;5030266;28;20206;-75
2023/05/19 08:15:47;;;;;;;3.20;2.88;;;16.90;99.90;;;-141.84;44.07;21004.97;5030390;28;20474;-73
2023/05/19 08:18:16;;;;;;;3.65;2.80;;;16.80;99.90;;;-141.84;43.83;20974.50;5033221;28;20229;-73
2023/05/19 08:20:45;;;;;;;3.38;2.97;;;16.80;99.90;;;-141.84;43.45;20990.75;5033822;28;20567;-72
2023/05/19 08:23:14;;;;;;;5.75;3.20;;;16.90;99.90;;;-141.84;43.37;21011.09;5034441;28;20221;-73
2023/05/19 08:25:42;;;;;;;6.07;3.40;;;16.90;99.90;;;-141.84;43.56;21039.53;5033857;28;20248;-74
2023/05/19 08:28:10;;;;;;;4.20;2.75;;;17.10;99.90;;;-141.84;43.78;21031.41;5034317;28;20220;-75
2023/05/19 08:30:38;;;;;;;3.70;3.08;;;16.90;99.90;;;-141.84;43.37;21035.47;5031436;28;20236;-72
2023/05/19 08:33:07;;;;;;;4.75;3.08;;;16.90;99.90;;;-141.84;43.47;21051.75;5032005;28;20230;-72
2023/05/19 08:35:35;;;;;;;4.30;3.05;;;17.00;99.90;;;-141.84;43.29;21037.50;5031966;28;20721;-72
2023/05/19 08:38:04;;;;;;;5.30;3.75;;;16.90;99.90;;;-141.84;42.78;21084.28;5032345;28;20659;-72
2023/05/19 08:40:37;;;;;;;3.60;3.28;;;17.00;99.90;;;-141.84;42.49;21141.19;5032042;28;20637;-74
2023/05/19 08:43:05;;;;;;;4.68;3.10;;;17.30;99.90;;;-141.84;41.70;21171.69;5032140;28;20197;-75
2023/05/19 08:45:34;;;;;;;3.42;3.10;;;17.50;99.90;;;-141.84;41.36;21183.88;5030083;28;20662;-74
2023/05/19 08:48:04;;;;;;;3.33;2.65;;;17.60;99.90;;;-141.84;41.94;21106.63;5031970;28;20221;-76
2023/05/19 08:50:40;;;;;;;3.35;2.80;;;17.50;99.90;;;-141.84;42.42;21139.16;5032866;28;20244;-76
2023/05/19 08:53:21;;;;;;;5.15;3.20;;;17.40;99.90;;;-141.84;43.56;21023.28;5032862;28;20241;-69
2023/05/19 08:56:09;;;;;;;3.42;3.00;;;17.20;99.90;;;-141.84;43.93;21086.31;5031413;28;20222;-69
2023/05/19 08:58:40;;;;;;;5.75;2.97;;;17.00;99.90;;;-141.84;43.86;21055.81;5033287;28;20194;-68
2023/05/19 09:01:08;;;;;;;5.53;2.75;;;17.00;99.90;;;-141.84;41.23;21167.63;5031869;28;20190;-68
2023/05/19 09:03:38;;;;;;;3.80;2.40;;;17.20;99.90;;;-141.84;41.58;21135.09;5031743;28;20252;-68
2023/05/19 09:06:07;;;;;;;2.95;2.25;;;17.40;99.90;;;-141.84;39.93;21208.28;5032328;28;20199;-68
2023/05/19 09:08:37;;;;;;;3.00;2.35;;;17.50;99.90;;;-141.84;39.88;21159.50;5032382;28;20252;-75
2023/05/19 09:11:06;;;;;;;2.83;1.98;;;17.60;99.90;;;-141.84;40.10;21277.41;5031798;28;20254;-76
2023/05/19 09:13:34;;;;;;;3.08;2.10;;;17.80;99.90;;;-141.84;39.61;21356.69;5031415;28;20270;-72
2023/05/19 09:16:03;;;;;;;3.88;2.75;;;18.10;99.90;;;-141.84;39.38;21336.38;5031313;28;20237;-70
2023/05/19 09:18:31;;;;;;;4.88;2.40;;;18.20;99.90;;;-141.84;39.97;21328.25;5031667;28;20202;-69
2023/05/19 09:21:01;;;;;;;3.45;2.58;;;18.20;99.90;;;-141.84;40.55;21324.19;5031450;28;20741;-70
2023/05/19 09:23:33;;;;;;;2.80;2.50;;;18.30;99.90;;;-141.84;40.43;21269.28;5031954;28;20217;-70
2023/05/19 09:26:06;;;;;;;2.75;2.35;;;18.10;99.90;;;-141.84;40.93;21330.28;5031816;28;20289;-71
2023/05/19 09:28:36;;;;;;;4.95;2.13;;;18.20;99.90;;;-141.84;39.54;21350.59;5030454;28;20724;-74
2023/05/19 09:31:07;;;;;;;3.08;2.38;;;18.40;99.90;;;-141.84;39.69;21332.31;5030826;28;20225;-74
2023/05/19 09:33:37;;;;;;;3.70;2.35;;;18.30;99.90;;;-141.84;40.65;21165.59;5031714;28;20332;-78
2023/05/19 09:36:09;;;;;;;4.03;2.00;;;18.00;99.90;;;-141.84;41.49;21167.63;5032122;28;20285;-74
2023/05/19 09:38:39;;;;;;;3.88;2.30;;;17.80;99.90;;;-141.84;41.22;21141.19;5026891;28;20194;-75
2023/05/19 09:41:09;;;;;;;2.88;2.03;;;17.70;99.90;;;-141.84;40.93;21212.34;5032123;28;20629;-75
2023/05/19 09:43:37;;;;;;;3.28;2.10;;;17.80;99.90;;;-141.84;41.47;21200.16;5031106;28;20203;-69
2023/05/19 09:46:07;;;;;;;2.80;1.80;;;17.80;99.90;;;-141.84;41.20;21238.78;5030261;28;20296;-69
2023/05/19 09:48:36;;;;;;;2.22;2.00;;;17.90;99.90;;;-141.84;40.37;21257.09;5030947;28;20666;-69
2023/05/19 09:51:09;;;;;;;2.47;2.00;;;17.90;99.90;;;-141.84;40.07;21281.47;5026587;28;20218;-69
2023/05/19 09:53:37;;;;;;;3.58;2.00;;;18.00;99.90;;;-141.84;40.69;21265.22;5031059;28;20226;-72
2023/05/19 09:56:09;;;;;;;4.22;2.22;;;18.10;99.90;;;-141.84;40.46;21226.59;5031408;28;20206;-75
2023/05/19 09:58:41;;;;;;;2.72;2.20;;;18.10;99.90;;;-141.84;39.78;21314.00;5031830;28;20698;-71
2023/05/19 10:01:09;;;;;;;2.13;1.77;;;18.30;99.90;;;-141.84;39.28;21389.22;5029946;28;20190;-73
2023/05/19 10:03:40;;;;;;;2.97;1.70;;;18.50;99.90;;;-141.84;39.10;21525.47;5029042;28;20616;-70
2023/05/19 10:06:10;;;;;;;3.17;1.90;;;18.90;99.90;;;-141.84;37.69;21667.78;4995408;28;20513;-65
2023/05/19 10:08:42;;;;;;;2.08;1.73;;;19.40;99.90;;;-141.84;37.54;21600.69;5030973;28;20202;-65
2023/05/19 10:11:13;;;;;;;3.80;2.53;;;19.50;99.90;;;-141.84;37.78;21539.69;5028837;28;20341;-65
2023/05/19 10:13:42;;;;;;;2.17;1.98;;;19.50;99.90;;;-141.84;38.53;21425.84;5030178;28;20686;-66
2023/05/19 10:16:10;;;;;;;2.45;2.00;;;19.10;99.90;;;-141.84;38.60;21476.66;5030227;28;20741;-69